Terminal Aerodrome Forecast
Issued by NWS

Home | Current Version | Previous Version | Text Only | Print | Product List | Glossary On
Versions: 1 2 3 4 5 6 7 8 9 10 11 12 13 14 15
000
FTUS44 KLZK 161100
TAFLIT
TAF
KLIT 161137Z 1612/1712 VRB04KT P6SM SCT060 OVC100
      TEMPO 1612/1615 BKN060
     FM161500 03006KT P6SM SCT025 BKN060
     FM161900 04007KT P6SM SCT035 BKN060
     FM170100 VRB03KT P6SM SCT060 SCT250=

USA.gov is the U.S. government's official web portal to all federal, state and local government web resources and services.